TimeEDT,TemperatureF,Dew PointF,Humidity,Sea Level PressureIn,VisibilityMPH,Wind Direction,Wind SpeedMPH,Gust SpeedMPH,PrecipitationIn,Events,Conditions,WindDirDegrees,DateUTC
12:52 AM,46.9,46.0,97,30.17,5.0,Calm,Calm,-,N/A,,Partly Cloudy,0,2013-10-16 04:52:00
1:48 AM,42.8,42.8,100,30.15,1.5,Calm,Calm,-,N/A,,Clear,0,2013-10-16 05:48:00
1:50 AM,42.8,42.8,100,30.15,0.8,Calm,Calm,-,N/A,,Clear,0,2013-10-16 05:50:00
1:52 AM,42.1,42.1,100,30.17,0.5,Calm,Calm,-,N/A,Fog,Fog,0,2013-10-16 05:52:00
2:02 AM,42.8,41.0,93,30.15,1.8,Calm,Calm,-,N/A,,Clear,0,2013-10-16 06:02:00
2:04 AM,42.8,41.0,93,30.15,3.0,Calm,Calm,-,N/A,,Clear,0,2013-10-16 06:04:00
2:07 AM,42.8,41.0,93,30.15,2.0,Calm,Calm,-,N/A,,Partly Cloudy,0,2013-10-16 06:07:00
2:09 AM,42.8,41.0,93,30.15,1.0,Calm,Calm,-,N/A,,Mist,0,2013-10-16 06:09:00
2:14 AM,42.8,41.0,93,30.15,0.2,Calm,Calm,-,N/A,Fog,Fog,0,2013-10-16 06:14:00
2:32 AM,42.8,42.8,100,30.14,1.2,Calm,Calm,-,N/A,,Overcast,0,2013-10-16 06:32:00
2:52 AM,42.1,41.0,96,30.15,0.8,Calm,Calm,-,N/A,,Mist,0,2013-10-16 06:52:00
3:00 AM,42.8,41.0,93,30.14,1.8,Calm,Calm,-,N/A,,Mostly Cloudy,0,2013-10-16 07:00:00
3:07 AM,39.2,39.2,100,30.14,8.0,Calm,Calm,-,N/A,,Mostly Cloudy,0,2013-10-16 07:07:00
3:24 AM,41.0,39.2,93,30.14,2.0,Calm,Calm,-,N/A,,Mostly Cloudy,0,2013-10-16 07:24:00
3:33 AM,42.8,42.8,100,30.14,1.8,Calm,Calm,-,N/A,,Mostly Cloudy,0,2013-10-16 07:33:00
3:36 AM,42.8,42.8,100,30.14,0.8,Calm,Calm,-,N/A,,Mist,0,2013-10-16 07:36:00
3:52 AM,41.0,41.0,100,30.16,0.2,Calm,Calm,-,N/A,Fog,Fog,0,2013-10-16 07:52:00
4:28 AM,42.8,41.0,93,30.14,0.5,Calm,Calm,-,N/A,Fog,Fog,0,2013-10-16 08:28:00
4:52 AM,41.0,41.0,100,30.15,0.5,Calm,Calm,-,N/A,Fog,Fog,0,2013-10-16 08:52:00
5:52 AM,42.1,41.0,96,30.14,2.0,Calm,Calm,-,N/A,,Mostly Cloudy,0,2013-10-16 09:52:00
5:54 AM,42.8,41.0,93,30.12,5.0,Calm,Calm,-,N/A,,Mostly Cloudy,0,2013-10-16 09:54:00
6:05 AM,42.8,42.8,100,30.12,2.5,Calm,Calm,-,N/A,,Overcast,0,2013-10-16 10:05:00
6:22 AM,42.8,42.8,100,30.12,8.0,Calm,Calm,-,N/A,,Overcast,0,2013-10-16 10:22:00
6:52 AM,41.0,39.9,96,30.14,7.0,Calm,Calm,-,N/A,,Scattered Clouds,0,2013-10-16 10:52:00
7:03 AM,44.6,42.8,93,30.12,3.0,North,5.8,-,N/A,,Mostly Cloudy,350,2013-10-16 11:03:00
7:52 AM,44.1,44.1,100,30.13,7.0,Calm,Calm,-,N/A,,Overcast,0,2013-10-16 11:52:00
8:52 AM,51.1,48.9,92,30.11,10.0,Calm,Calm,-,N/A,,Overcast,0,2013-10-16 12:52:00
9:18 AM,57.2,50.0,77,30.08,10.0,Variable,6.9,-,N/A,,Partly Cloudy,0,2013-10-16 13:18:00
9:50 AM,57.2,50.0,77,30.08,10.0,SSE,9.2,-,N/A,,Mostly Cloudy,150,2013-10-16 13:50:00
9:52 AM,57.9,50.0,75,30.08,10.0,SE,9.2,-,N/A,,Mostly Cloudy,140,2013-10-16 13:52:00
10:04 AM,59.0,51.8,77,30.07,10.0,SE,9.2,-,N/A,,Scattered Clouds,140,2013-10-16 14:04:00
10:52 AM,57.9,50.0,75,30.07,10.0,SE,9.2,-,N/A,,Clear,140,2013-10-16 14:52:00
11:52 AM,60.1,51.1,72,30.06,10.0,SSE,10.4,20.7,N/A,,Clear,150,2013-10-16 15:52:00
12:52 PM,57.0,50.0,77,30.05,10.0,SSE,11.5,18.4,N/A,,Clear,150,2013-10-16 16:52:00
1:52 PM,62.1,50.0,65,30.01,10.0,SSE,10.4,16.1,N/A,,Clear,150,2013-10-16 17:52:00
2:52 PM,59.0,48.0,67,29.99,10.0,SSE,11.5,-,N/A,,Clear,150,2013-10-16 18:52:00
3:52 PM,59.0,48.0,67,29.98,10.0,South,4.6,-,N/A,,Clear,170,2013-10-16 19:52:00
4:52 PM,57.9,46.9,67,29.96,10.0,SSE,4.6,-,N/A,,Clear,150,2013-10-16 20:52:00
5:52 PM,55.9,46.0,69,29.96,10.0,SSE,5.8,-,N/A,,Clear,150,2013-10-16 21:52:00
6:52 PM,51.1,46.0,83,29.96,10.0,Calm,Calm,-,N/A,,Clear,0,2013-10-16 22:52:00
7:52 PM,51.1,46.0,83,29.95,10.0,Calm,Calm,-,N/A,,Partly Cloudy,0,2013-10-16 23:52:00
8:52 PM,48.0,45.0,89,29.94,10.0,Calm,Calm,-,N/A,,Clear,0,2013-10-17 00:52:00
9:52 PM,46.0,44.1,93,29.93,10.0,Calm,Calm,-,N/A,,Mostly Cloudy,0,2013-10-17 01:52:00
10:52 PM,45.0,43.0,93,29.91,10.0,Calm,Calm,-,N/A,,Mostly Cloudy,0,2013-10-17 02:52:00
11:52 PM,46.0,44.1,93,29.88,10.0,Calm,Calm,-,N/A,,Mostly Cloudy,0,2013-10-17 03:52:00